createdAt,value
2019-03-29T00:00:08.557Z,101000.02
2019-03-29T00:02:43.357Z,100997.15
2019-03-29T00:05:16.581Z,100996.31
2019-03-29T00:07:49.829Z,100994.98
2019-03-29T00:10:23.053Z,100989.95
2019-03-29T00:12:57.086Z,100990.53
2019-03-29T00:15:30.580Z,100995.90
2019-03-29T00:18:03.840Z,100996.16
2019-03-29T00:20:37.064Z,100986.42
2019-03-29T00:23:10.313Z,100989.47
2019-03-29T00:25:43.537Z,100978.69
2019-03-29T00:28:16.785Z,100983.86
2019-03-29T00:30:50.011Z,100986.25
2019-03-29T00:33:23.948Z,100977.55
2019-03-29T00:35:57.170Z,100976.13
2019-03-29T00:38:30.402Z,100978.70
2019-03-29T00:41:03.916Z,100971.33
2019-03-29T00:43:37.124Z,100973.30
2019-03-29T00:46:10.393Z,100968.61
2019-03-29T00:48:43.659Z,100973.66
2019-03-29T00:51:16.979Z,100972.56
2019-03-29T00:53:50.215Z,100977.98
2019-03-29T00:56:23.440Z,100973.92
2019-03-29T00:58:56.696Z,100976.42
2019-03-29T01:01:29.914Z,100974.08
2019-03-29T01:04:03.292Z,100972.73
2019-03-29T01:06:38.443Z,100972.00
2019-03-29T01:09:12.404Z,100967.91
2019-03-29T01:11:45.624Z,100963.81
2019-03-29T01:14:18.866Z,100967.10
2019-03-29T01:16:52.072Z,100966.52
2019-03-29T01:19:25.316Z,100964.11
2019-03-29T01:21:58.532Z,100959.11
2019-03-29T01:24:33.964Z,100952.80
2019-03-29T01:27:07.198Z,100956.44
2019-03-29T01:29:40.414Z,100953.05
2019-03-29T01:32:13.652Z,100951.77
2019-03-29T01:34:46.899Z,100955.50
2019-03-29T01:37:20.172Z,100951.59
2019-03-29T01:39:53.395Z,100950.42
2019-03-29T01:42:26.636Z,100949.72
2019-03-29T01:44:59.861Z,100943.26
2019-03-29T01:47:33.117Z,100938.94
2019-03-29T01:50:07.956Z,100949.22
2019-03-29T01:52:41.383Z,100946.43
2019-03-29T01:55:14.627Z,100940.89
2019-03-29T01:57:48.917Z,100943.14
2019-03-29T02:00:36.096Z,100936.92
2019-03-29T02:03:09.565Z,100947.80
2019-03-29T02:05:42.884Z,100945.06
2019-03-29T02:08:16.115Z,100938.49
2019-03-29T02:10:49.373Z,100944.98
2019-03-29T02:13:22.614Z,100937.70
2019-03-29T02:15:55.910Z,100935.19
2019-03-29T02:18:29.160Z,100933.60
2019-03-29T02:21:02.375Z,100929.55
2019-03-29T02:23:35.633Z,100928.95
2019-03-29T02:26:09.167Z,100925.12
2019-03-29T02:28:44.226Z,100915.92
2019-03-29T02:31:18.261Z,100916.73
2019-03-29T02:33:51.535Z,100912.55
2019-03-29T02:36:24.753Z,100915.33
2019-03-29T02:38:59.216Z,100920.40
2019-03-29T02:41:32.706Z,100919.50
2019-03-29T02:44:06.568Z,100910.95
2019-03-29T02:46:40.826Z,100912.88
2019-03-29T02:49:14.088Z,100912.13
2019-03-29T02:51:47.333Z,100910.02
2019-03-29T02:54:20.575Z,100907.55
2019-03-29T02:56:53.796Z,100909.67
2019-03-29T02:59:27.036Z,100911.21
2019-03-29T03:02:00.574Z,100913.58
2019-03-29T03:04:33.798Z,100910.94
2019-03-29T03:07:07.024Z,100909.39
2019-03-29T03:09:40.257Z,100905.17
2019-03-29T03:12:13.487Z,100902.16
2019-03-29T03:14:46.715Z,100905.10
2019-03-29T03:17:19.930Z,100901.84
2019-03-29T03:19:53.175Z,100905.74
2019-03-29T03:22:26.399Z,100904.34
2019-03-29T03:24:59.643Z,100905.47
2019-03-29T03:27:32.859Z,100899.30
2019-03-29T03:30:07.402Z,100902.91
2019-03-29T03:32:40.649Z,100902.83
2019-03-29T03:35:14.003Z,100906.60
2019-03-29T03:37:47.311Z,100905.55
2019-03-29T03:40:20.581Z,100903.56
2019-03-29T03:42:53.791Z,100904.92
2019-03-29T03:45:27.035Z,100903.32
2019-03-29T03:48:00.255Z,100905.67
2019-03-29T03:50:40.449Z,100903.99
2019-03-29T03:53:13.661Z,100902.66
2019-03-29T03:55:46.903Z,100901.44
2019-03-29T03:58:20.118Z,100899.61
2019-03-29T04:00:58.342Z,100899.62
2019-03-29T04:03:31.704Z,100899.93
2019-03-29T04:06:04.979Z,100896.03
2019-03-29T04:08:38.191Z,100894.59
2019-03-29T04:11:11.382Z,100894.05
2019-03-29T04:13:44.583Z,100895.20
2019-03-29T04:16:17.840Z,100891.47
2019-03-29T04:18:51.051Z,100894.36
2019-03-29T04:21:24.289Z,100889.03
2019-03-29T04:23:57.518Z,100901.47
2019-03-29T04:26:30.749Z,100895.58
2019-03-29T04:29:05.356Z,100895.06
2019-03-29T04:31:38.888Z,100894.70
2019-03-29T04:34:12.101Z,100896.53
2019-03-29T04:36:45.342Z,100901.46
2019-03-29T04:39:18.558Z,100905.14
2019-03-29T04:41:51.796Z,100896.44
2019-03-29T04:44:25.017Z,100891.47
2019-03-29T04:46:58.263Z,100891.27
2019-03-29T04:49:31.485Z,100892.74
2019-03-29T04:52:04.768Z,100898.91
2019-03-29T04:54:38.059Z,100893.05
2019-03-29T04:57:11.239Z,100894.80
2019-03-29T04:59:44.466Z,100898.84
2019-03-29T05:02:17.719Z,100900.02
2019-03-29T05:04:50.945Z,100898.54
2019-03-29T05:07:24.250Z,100906.75
2019-03-29T05:09:57.468Z,100907.13
2019-03-29T05:12:30.736Z,100908.33
2019-03-29T05:15:03.974Z,100912.72
2019-03-29T05:17:37.218Z,100909.19
2019-03-29T05:20:10.445Z,100910.81
2019-03-29T05:22:43.677Z,100908.69
2019-03-29T05:25:16.896Z,100909.17
2019-03-29T05:27:50.144Z,100909.59
2019-03-29T05:30:23.370Z,100907.16
2019-03-29T05:32:56.602Z,100919.91
2019-03-29T05:35:29.828Z,100916.42
2019-03-29T05:38:03.081Z,100921.95
2019-03-29T05:40:36.304Z,100913.05
2019-03-29T05:43:09.545Z,100915.29
2019-03-29T05:45:42.768Z,100918.42
2019-03-29T05:48:16.023Z,100913.16
2019-03-29T05:50:49.404Z,100914.66
2019-03-29T05:53:22.652Z,100919.36
2019-03-29T05:55:55.867Z,100912.30
2019-03-29T05:58:29.109Z,100908.09
2019-03-29T06:01:02.344Z,100909.36
2019-03-29T06:03:35.578Z,100903.84
2019-03-29T06:06:08.830Z,100908.38
2019-03-29T06:08:42.052Z,100905.30
2019-03-29T06:11:15.386Z,100903.69
2019-03-29T06:13:48.615Z,100902.25
2019-03-29T06:16:21.872Z,100904.17
2019-03-29T06:18:55.133Z,100904.87
2019-03-29T06:21:28.364Z,100902.45
2019-03-29T06:24:01.614Z,100902.34
2019-03-29T06:26:34.857Z,100901.42
2019-03-29T06:29:08.109Z,100903.47
2019-03-29T06:31:41.378Z,100905.67
2019-03-29T06:34:14.603Z,100905.20
2019-03-29T06:36:47.859Z,100900.43
2019-03-29T06:39:21.453Z,100897.92
2019-03-29T06:41:54.790Z,100889.92
2019-03-29T06:44:28.011Z,100896.16
2019-03-29T06:47:01.191Z,100894.02
2019-03-29T06:49:34.439Z,100893.75
2019-03-29T06:52:07.714Z,100887.94
2019-03-29T06:54:40.949Z,100883.89
2019-03-29T06:57:14.194Z,100882.23
2019-03-29T06:59:47.444Z,100881.31
2019-03-29T07:02:21.872Z,100883.56
2019-03-29T07:04:55.180Z,100881.95
2019-03-29T07:07:28.438Z,100878.52
2019-03-29T07:10:01.668Z,100871.61
2019-03-29T07:12:34.928Z,100872.09
2019-03-29T07:15:08.235Z,100872.92
2019-03-29T07:17:41.485Z,100872.56
2019-03-29T07:20:14.705Z,100875.96
2019-03-29T07:22:47.957Z,100871.11
2019-03-29T07:25:21.120Z,100865.87
2019-03-29T07:27:54.377Z,100865.18
2019-03-29T07:30:27.642Z,100865.98
2019-03-29T07:33:00.903Z,100864.66
2019-03-29T07:35:34.147Z,100867.95
2019-03-29T07:38:07.401Z,100864.92
2019-03-29T07:40:40.647Z,100859.16
2019-03-29T07:43:13.901Z,100855.41
2019-03-29T07:45:47.125Z,100851.59
2019-03-29T07:48:20.397Z,100851.32
2019-03-29T07:50:53.668Z,100847.95
2019-03-29T07:53:27.881Z,100842.84
2019-03-29T07:56:01.109Z,100840.70
2019-03-29T07:58:34.351Z,100842.03
2019-03-29T08:01:08.373Z,100838.89
2019-03-29T08:03:41.813Z,100839.18
2019-03-29T08:06:15.025Z,100839.67
2019-03-29T08:08:48.270Z,100843.23
2019-03-29T08:11:26.346Z,100844.52
2019-03-29T08:13:57.170Z,100835.09
2019-03-29T08:16:30.394Z,100835.06
2019-03-29T08:19:03.635Z,100832.72
2019-03-29T08:21:36.851Z,100834.41
2019-03-29T08:24:10.136Z,100831.53
2019-03-29T08:26:43.394Z,100831.81
2019-03-29T08:29:16.705Z,100831.98
2019-03-29T08:31:49.915Z,100824.86
2019-03-29T08:34:23.166Z,100831.16
2019-03-29T08:36:56.389Z,100819.08
2019-03-29T08:39:29.631Z,100822.48
2019-03-29T08:42:02.998Z,100828.41
2019-03-29T08:44:36.240Z,100832.11
2019-03-29T08:47:11.027Z,100825.52
2019-03-29T08:49:44.277Z,100825.94
2019-03-29T08:52:17.517Z,100827.44
2019-03-29T08:54:51.336Z,100821.92
2019-03-29T08:57:24.797Z,100821.30
2019-03-29T08:59:58.053Z,100817.52
2019-03-29T09:02:31.213Z,100821.28
2019-03-29T09:05:04.491Z,100821.19
2019-03-29T09:07:44.769Z,100820.03
2019-03-29T09:10:26.226Z,100815.69
2019-03-29T09:12:59.526Z,100816.37
2019-03-29T09:15:32.772Z,100816.56
2019-03-29T09:18:06.009Z,100818.78
2019-03-29T09:20:39.247Z,100813.41
2019-03-29T09:23:12.540Z,100820.83
2019-03-29T09:25:48.460Z,100816.28
2019-03-29T09:28:21.684Z,100813.62
2019-03-29T09:30:56.781Z,100806.42
2019-03-29T09:33:29.855Z,100803.64
2019-03-29T09:36:05.002Z,100800.28
2019-03-29T09:38:39.586Z,100797.36
2019-03-29T09:41:12.832Z,100796.36
2019-03-29T09:43:47.122Z,100799.63
2019-03-29T09:46:20.363Z,100806.03
2019-03-29T09:48:53.841Z,100796.99
2019-03-29T09:51:27.114Z,100792.02
2019-03-29T09:54:00.348Z,100788.00
2019-03-29T09:56:39.191Z,100778.10
2019-03-29T09:59:09.574Z,100777.76
2019-03-29T10:01:42.818Z,100772.20
2019-03-29T10:04:16.049Z,100773.83
2019-03-29T10:06:49.317Z,100773.22
2019-03-29T10:09:22.544Z,100775.63
2019-03-29T10:11:55.818Z,100768.80
2019-03-29T10:14:29.037Z,100763.78
2019-03-29T10:17:02.273Z,100766.30
2019-03-29T10:19:35.566Z,100763.43
2019-03-29T10:22:08.827Z,100759.80
2019-03-29T10:24:42.067Z,100749.80
2019-03-29T10:27:18.745Z,100751.81
2019-03-29T10:29:50.230Z,100742.97
2019-03-29T10:32:23.484Z,100743.17
2019-03-29T10:34:56.715Z,100730.55
2019-03-29T10:37:29.955Z,100729.82
2019-03-29T10:40:03.172Z,100742.25
2019-03-29T10:42:39.855Z,100733.81
2019-03-29T10:45:11.541Z,100727.36
2019-03-29T10:47:45.167Z,100727.35
2019-03-29T10:50:18.909Z,100727.59
2019-03-29T10:52:52.611Z,100724.31
2019-03-29T10:55:26.110Z,100725.52
2019-03-29T10:57:59.684Z,100717.28
2019-03-29T11:00:40.730Z,100715.69
2019-03-29T11:03:14.135Z,100710.95
2019-03-29T11:05:47.483Z,100708.96
2019-03-29T11:08:20.912Z,100710.20
2019-03-29T11:10:54.495Z,100710.03
2019-03-29T11:13:28.489Z,100711.20
2019-03-29T11:16:01.901Z,100709.09
2019-03-29T11:18:37.018Z,100708.03
2019-03-29T11:21:10.806Z,100709.16
2019-03-29T11:23:44.396Z,100706.38
2019-03-29T11:26:17.921Z,100699.19
2019-03-29T11:28:51.530Z,100696.72
2019-03-29T11:31:26.056Z,100691.67
2019-03-29T11:34:02.780Z,100695.98
2019-03-29T11:36:36.400Z,100696.06
2019-03-29T11:39:10.770Z,100692.37
2019-03-29T11:41:45.357Z,100687.63
2019-03-29T11:44:19.003Z,100682.73
2019-03-29T11:46:52.878Z,100678.08
2019-03-29T11:49:26.404Z,100678.31
2019-03-29T11:52:00.194Z,100682.97
2019-03-29T11:54:33.544Z,100671.69
2019-03-29T11:57:07.274Z,100668.56
2019-03-29T11:59:40.684Z,100668.91
2019-03-29T12:02:14.023Z,100671.73
2019-03-29T12:04:47.563Z,100675.34
2019-03-29T12:07:21.256Z,100667.83
2019-03-29T12:09:54.661Z,100663.75
2019-03-29T12:12:28.199Z,100657.03
2019-03-29T12:15:01.594Z,100656.12
2019-03-29T12:17:35.559Z,100652.88
2019-03-29T12:20:10.467Z,100657.81
2019-03-29T12:22:44.091Z,100647.96
2019-03-29T12:25:17.602Z,100653.45
2019-03-29T12:27:51.153Z,100639.64
2019-03-29T12:30:31.972Z,100634.33
2019-03-29T12:33:00.122Z,100637.90
2019-03-29T12:35:33.471Z,100634.00
2019-03-29T12:38:07.814Z,100631.75
2019-03-29T12:40:41.071Z,100622.27
2019-03-29T12:43:14.323Z,100625.50
2019-03-29T12:45:47.782Z,100621.89
2019-03-29T12:48:21.337Z,100624.70
2019-03-29T12:50:54.779Z,100621.05
2019-03-29T12:53:28.165Z,100618.74
2019-03-29T12:56:03.876Z,100611.31
2019-03-29T12:58:37.272Z,100600.97
2019-03-29T13:01:10.527Z,100606.23
2019-03-29T13:03:43.768Z,100600.16
2019-03-29T13:06:17.005Z,100589.87
2019-03-29T13:08:50.246Z,100593.03
2019-03-29T13:11:23.503Z,100589.01
2019-03-29T13:14:09.468Z,100592.07
2019-03-29T13:16:31.784Z,100594.88
2019-03-29T13:19:05.006Z,100587.61
2019-03-29T13:21:38.981Z,100589.87
2019-03-29T13:24:15.861Z,100575.16
2019-03-29T13:26:49.142Z,100569.45
2019-03-29T13:29:22.484Z,100559.80
2019-03-29T13:31:56.260Z,100556.14
2019-03-29T13:34:29.594Z,100552.52
2019-03-29T13:37:02.935Z,100542.22
2019-03-29T13:39:36.286Z,100540.33
2019-03-29T13:42:09.832Z,100529.58
2019-03-29T13:44:43.151Z,100536.47
2019-03-29T13:47:18.216Z,100536.42
2019-03-29T13:49:51.742Z,100527.02
2019-03-29T13:52:26.091Z,100522.52
2019-03-29T13:54:59.474Z,100519.05
2019-03-29T13:57:33.151Z,100516.41
2019-03-29T14:00:09.300Z,100507.90
2019-03-29T14:02:43.082Z,100504.58
2019-03-29T14:05:17.127Z,100504.95
2019-03-29T14:07:50.854Z,100496.44
2019-03-29T14:10:24.680Z,100494.90
2019-03-29T14:12:58.656Z,100491.03
2019-03-29T14:15:33.274Z,100487.16
2019-03-29T14:18:07.087Z,100480.66
2019-03-29T14:20:41.164Z,100478.16
2019-03-29T14:23:15.101Z,100478.59
2019-03-29T14:25:50.539Z,100475.97
2019-03-29T14:28:24.439Z,100464.97
2019-03-29T14:30:58.135Z,100461.10
2019-03-29T14:33:33.181Z,100462.86
2019-03-29T14:36:07.171Z,100451.91
2019-03-29T14:38:40.693Z,100458.60
2019-03-29T14:41:14.048Z,100455.38
2019-03-29T14:43:47.371Z,100451.67
2019-03-29T14:46:20.666Z,100447.22
2019-03-29T14:48:53.989Z,100444.48
2019-03-29T14:51:27.281Z,100440.23
2019-03-29T14:54:00.535Z,100442.98
2019-03-29T14:56:33.772Z,100434.92
2019-03-29T14:59:07.253Z,100433.64
2019-03-29T15:01:40.574Z,100437.03
2019-03-29T15:04:13.911Z,100430.25
2019-03-29T15:06:47.231Z,100426.47
2019-03-29T15:09:20.618Z,100422.48
2019-03-29T15:11:53.971Z,100419.42
2019-03-29T15:14:27.548Z,100418.09
2019-03-29T15:17:00.801Z,100407.95
2019-03-29T15:19:34.034Z,100415.02
2019-03-29T15:22:07.307Z,100416.16
2019-03-29T15:24:40.612Z,100413.22
2019-03-29T15:27:13.921Z,100407.53
2019-03-29T15:29:47.176Z,100413.64
2019-03-29T15:32:20.549Z,100409.41
2019-03-29T15:34:53.861Z,100410.29
2019-03-29T15:37:27.298Z,100408.78
2019-03-29T15:40:00.647Z,100401.97
2019-03-29T15:42:35.286Z,100401.86
2019-03-29T15:45:19.750Z,100399.61
2019-03-29T15:47:43.793Z,100401.09
2019-03-29T15:50:17.156Z,100396.86
2019-03-29T15:52:50.534Z,100391.02
2019-03-29T15:55:23.840Z,100387.77
2019-03-29T15:57:57.516Z,100389.73
2019-03-29T16:00:31.908Z,100392.35
2019-03-29T16:03:05.645Z,100389.14
2019-03-29T16:05:39.113Z,100388.61
2019-03-29T16:08:13.654Z,100382.44
2019-03-29T16:10:47.283Z,100383.57
2019-03-29T16:13:20.562Z,100383.85
2019-03-29T16:15:53.853Z,100386.14
2019-03-29T16:18:27.094Z,100387.59
2019-03-29T16:21:00.340Z,100384.86
2019-03-29T16:23:34.732Z,100385.67
2019-03-29T16:26:07.974Z,100382.61
2019-03-29T16:28:41.139Z,100384.15
2019-03-29T16:31:14.355Z,100385.44
2019-03-29T16:33:47.605Z,100378.95
2019-03-29T16:36:20.822Z,100378.47
2019-03-29T16:38:54.070Z,100377.94
2019-03-29T16:41:27.294Z,100372.02
2019-03-29T16:44:00.533Z,100376.00
2019-03-29T16:46:33.752Z,100379.87
2019-03-29T16:49:07.089Z,100375.78
2019-03-29T16:51:40.525Z,100372.80
2019-03-29T16:54:13.735Z,100371.35
2019-03-29T16:56:46.955Z,100374.42
2019-03-29T16:59:20.256Z,100373.03
2019-03-29T17:01:53.460Z,100375.67
2019-03-29T17:04:26.714Z,100375.42
2019-03-29T17:06:59.936Z,100374.80
2019-03-29T17:09:33.177Z,100378.99
2019-03-29T17:12:06.396Z,100379.00
2019-03-29T17:14:39.633Z,100380.37
2019-03-29T17:17:12.847Z,100376.23
2019-03-29T17:19:46.088Z,100375.98
2019-03-29T17:22:19.315Z,100380.28
2019-03-29T17:24:57.171Z,100381.52
2019-03-29T17:27:27.452Z,100382.43
2019-03-29T17:30:00.683Z,100381.46
2019-03-29T17:32:34.468Z,100386.34
2019-03-29T17:35:08.189Z,100384.90
2019-03-29T17:37:41.526Z,100381.42
2019-03-29T17:40:14.758Z,100385.23
2019-03-29T17:42:47.983Z,100383.95
2019-03-29T17:45:21.157Z,100380.48
2019-03-29T17:47:54.372Z,100379.95
2019-03-29T17:50:27.637Z,100378.56
2019-03-29T17:53:00.851Z,100382.25
2019-03-29T17:55:34.147Z,100382.00
2019-03-29T17:58:07.405Z,100381.78
2019-03-29T18:00:40.651Z,100383.94
2019-03-29T18:03:13.869Z,100388.22
2019-03-29T18:05:47.124Z,100391.39
2019-03-29T18:08:20.413Z,100387.58
2019-03-29T18:10:53.650Z,100384.87
2019-03-29T18:13:26.948Z,100389.69
2019-03-29T18:16:00.242Z,100388.03
2019-03-29T18:18:33.463Z,100390.13
2019-03-29T18:21:06.705Z,100391.04
2019-03-29T18:23:39.918Z,100397.52
2019-03-29T18:26:13.163Z,100399.14
2019-03-29T18:28:46.312Z,100397.69
2019-03-29T18:31:19.681Z,100395.77
2019-03-29T18:33:53.280Z,100393.59
2019-03-29T18:36:26.519Z,100396.87
2019-03-29T18:38:59.741Z,100402.66
2019-03-29T18:41:33.004Z,100405.47
2019-03-29T18:44:06.247Z,100408.69
2019-03-29T18:46:44.735Z,100407.47
2019-03-29T18:49:14.423Z,100415.85
2019-03-29T18:51:47.711Z,100413.28
2019-03-29T18:54:20.937Z,100408.67
2019-03-29T18:56:54.187Z,100416.48
2019-03-29T18:59:27.399Z,100416.41
2019-03-29T19:02:00.640Z,100412.44
2019-03-29T19:04:33.859Z,100416.74
2019-03-29T19:07:07.113Z,100413.36
2019-03-29T19:09:40.333Z,100412.42
2019-03-29T19:12:13.614Z,100410.91
2019-03-29T19:14:48.460Z,100409.56
2019-03-29T19:17:21.707Z,100404.91
2019-03-29T19:19:54.992Z,100402.09
2019-03-29T19:22:28.348Z,100400.63
2019-03-29T19:25:02.715Z,100398.58
2019-03-29T19:27:35.951Z,100398.08
2019-03-29T19:30:10.185Z,100399.56
2019-03-29T19:32:43.354Z,100400.13
2019-03-29T19:35:16.567Z,100395.47
2019-03-29T19:37:49.817Z,100390.52
2019-03-29T19:40:23.032Z,100396.14
2019-03-29T19:42:56.272Z,100393.22
2019-03-29T19:45:29.524Z,100397.42
2019-03-29T19:48:02.836Z,100396.92
2019-03-29T19:50:36.218Z,100396.16
2019-03-29T19:53:09.888Z,100392.44
2019-03-29T19:55:43.143Z,100393.55
2019-03-29T19:58:16.428Z,100389.69
2019-03-29T20:00:49.697Z,100387.14
2019-03-29T20:03:22.984Z,100383.59
2019-03-29T20:05:56.213Z,100381.23
2019-03-29T20:08:29.514Z,100387.69
2019-03-29T20:11:02.691Z,100381.16
2019-03-29T20:13:35.946Z,100384.59
2019-03-29T20:16:09.176Z,100384.62
2019-03-29T20:18:43.498Z,100382.52
2019-03-29T20:21:16.728Z,100390.31
2019-03-29T20:23:49.988Z,100386.53
2019-03-29T20:26:23.207Z,100390.56
2019-03-29T20:28:56.573Z,100390.19
2019-03-29T20:31:29.801Z,100388.17
2019-03-29T20:34:03.080Z,100391.83
2019-03-29T20:36:36.333Z,100391.36
2019-03-29T20:39:09.977Z,100388.31
2019-03-29T20:41:44.390Z,100388.55
2019-03-29T20:44:17.742Z,100385.87
2019-03-29T20:46:50.977Z,100382.64
2019-03-29T20:49:24.277Z,100379.36
2019-03-29T20:51:57.556Z,100381.23
2019-03-29T20:54:30.915Z,100384.11
2019-03-29T20:57:04.152Z,100385.16
2019-03-29T20:59:37.427Z,100390.37
2019-03-29T21:02:10.652Z,100381.88
2019-03-29T21:04:43.981Z,100379.37
2019-03-29T21:07:17.209Z,100377.33
2019-03-29T21:09:50.481Z,100381.07
2019-03-29T21:12:23.699Z,100380.03
2019-03-29T21:14:56.950Z,100383.25
2019-03-29T21:17:30.179Z,100375.55
2019-03-29T21:20:03.430Z,100377.25
2019-03-29T21:22:37.643Z,100372.80
2019-03-29T21:25:10.953Z,100376.16
2019-03-29T21:27:45.268Z,100371.56
2019-03-29T21:30:18.524Z,100369.11
2019-03-29T21:32:51.769Z,100369.86
2019-03-29T21:35:25.034Z,100363.02
2019-03-29T21:37:58.275Z,100355.93
2019-03-29T21:40:31.530Z,100353.20
2019-03-29T21:43:04.787Z,100347.26
2019-03-29T21:45:38.051Z,100346.76
2019-03-29T21:48:27.903Z,100346.48
2019-03-29T21:50:47.346Z,100346.16
2019-03-29T21:53:20.630Z,100348.33
2019-03-29T21:55:53.864Z,100347.16
2019-03-29T21:58:27.216Z,100352.11
2019-03-29T22:01:00.482Z,100349.99
2019-03-29T22:03:33.782Z,100345.44
2019-03-29T22:06:07.098Z,100346.31
2019-03-29T22:08:40.330Z,100342.64
2019-03-29T22:11:13.585Z,100342.98
2019-03-29T22:13:47.190Z,100341.75
2019-03-29T22:16:20.589Z,100338.32
2019-03-29T22:18:53.823Z,100339.86
2019-03-29T22:21:27.066Z,100341.49
2019-03-29T22:24:00.330Z,100329.61
2019-03-29T22:26:33.555Z,100326.45
2019-03-29T22:29:06.927Z,100328.39
2019-03-29T22:31:40.356Z,100324.63
2019-03-29T22:34:13.584Z,100330.12
2019-03-29T22:36:47.157Z,100320.41
2019-03-29T22:39:20.721Z,100312.91
2019-03-29T22:41:54.072Z,100313.14
2019-03-29T22:44:27.300Z,100310.37
2019-03-29T22:47:00.552Z,100314.55
2019-03-29T22:49:33.805Z,100313.12
2019-03-29T22:52:07.176Z,100308.14
2019-03-29T22:54:40.446Z,100306.21
2019-03-29T22:57:13.654Z,100302.81
2019-03-29T22:59:47.268Z,100301.22
2019-03-29T23:02:20.549Z,100302.86
2019-03-29T23:04:53.843Z,100301.41
2019-03-29T23:07:27.126Z,100300.48
2019-03-29T23:10:00.388Z,100295.16
2019-03-29T23:12:33.639Z,100291.67
2019-03-29T23:15:08.308Z,100292.09
2019-03-29T23:17:41.558Z,100294.87
2019-03-29T23:20:14.870Z,100293.89
2019-03-29T23:22:48.124Z,100292.52
2019-03-29T23:25:21.359Z,100297.56
2019-03-29T23:27:54.639Z,100300.54
2019-03-29T23:30:27.936Z,100292.86
2019-03-29T23:33:01.179Z,100292.55
2019-03-29T23:35:34.470Z,100291.26
2019-03-29T23:38:07.731Z,100290.30
2019-03-29T23:40:41.020Z,100294.22
2019-03-29T23:43:14.298Z,100295.73
2019-03-29T23:45:47.522Z,100294.13
2019-03-29T23:48:20.770Z,100288.09
2019-03-29T23:50:54.109Z,100288.39
2019-03-29T23:53:27.440Z,100288.90
2019-03-29T23:56:00.671Z,100289.00
2019-03-29T23:58:33.956Z,100283.83
